Map

Track Data

SID SEASON NUMBER BASIN SUBBASIN NAME ISO_TIME NATURE LAT LON WMO_WIND WMO_PRES WMO_AGENCY TRACK_TYPE DIST2LAND LANDFALL IFLAG USA_AGENCY USA_ATCF_ID USA_LAT USA_LON USA_RECORD USA_STATUS USA_WIND USA_PRES USA_SSHS USA_R34_NE USA_R34_SE USA_R34_SW USA_R34_NW USA_R50_NE USA_R50_SE USA_R50_SW USA_R50_NW USA_R64_NE USA_R64_SE USA_R64_SW USA_R64_NW USA_POCI USA_ROCI USA_RMW USA_EYE TOKYO_LAT TOKYO_LON TOKYO_GRADE TOKYO_WIND TOKYO_PRES TOKYO_R50_DIR TOKYO_R50_LONG TOKYO_R50_SHORT TOKYO_R30_DIR TOKYO_R30_LONG TOKYO_R30_SHORT TOKYO_LAND CMA_LAT CMA_LON CMA_CAT CMA_WIND CMA_PRES HKO_LAT HKO_LON HKO_CAT HKO_WIND HKO_PRES NEWDELHI_LAT NEWDELHI_LON NEWDELHI_GRADE NEWDELHI_WIND NEWDELHI_PRES NEWDELHI_CI NEWDELHI_DP NEWDELHI_POCI REUNION_LAT REUNION_LON REUNION_TYPE REUNION_WIND REUNION_PRES REUNION_TNUM REUNION_CI REUNION_RMW REUNION_R34_NE REUNION_R34_SE REUNION_R34_SW REUNION_R34_NW REUNION_R50_NE REUNION_R50_SE REUNION_R50_SW REUNION_R50_NW REUNION_R64_NE REUNION_R64_SE REUNION_R64_SW REUNION_R64_NW BOM_LAT BOM_LON BOM_TYPE BOM_WIND BOM_PRES BOM_TNUM BOM_CI BOM_RMW BOM_R34_NE BOM_R34_SE BOM_R34_SW BOM_R34_NW BOM_R50_NE BOM_R50_SE BOM_R50_SW BOM_R50_NW BOM_R64_NE BOM_R64_SE BOM_R64_SW BOM_R64_NW BOM_ROCI BOM_POCI BOM_EYE BOM_POS_METHOD BOM_PRES_METHOD NADI_LAT NADI_LON NADI_CAT NADI_WIND NADI_PRES WELLINGTON_LAT WELLINGTON_LON WELLINGTON_WIND WELLINGTON_PRES DS824_LAT DS824_LON DS824_STAGE DS824_WIND DS824_PRES TD9636_LAT TD9636_LON TD9636_STAGE TD9636_WIND TD9636_PRES TD9635_LAT TD9635_LON TD9635_WIND TD9635_PRES TD9635_ROCI NEUMANN_LAT NEUMANN_LON NEUMANN_CLASS NEUMANN_WIND NEUMANN_PRES MLC_LAT MLC_LON MLC_CLASS MLC_WIND MLC_PRES USA_GUST BOM_GUST BOM_GUST_PER REUNION_GUST REUNION_GUST_PER USA_SEAHGT USA_SEARAD_NE USA_SEARAD_SE USA_SEARAD_SW USA_SEARAD_NW STORM_SPEED STORM_DIR
1895001S15072 1895 2 SI MM NOT_NAMED 1895-01-01 06:00:00 NR -14.7000 72.0000 main 1630 1596 __________O___ -1 -14.7000 72.0000 7 6 260
1895001S15072 1895 2 SI MM NOT_NAMED 1895-01-01 09:00:00 NR -14.7535 71.6955 main 1596 1567 __________P___ -1 -14.7535 71.6955 7 6 260
1895001S15072 1895 2 SI MM NOT_NAMED 1895-01-01 12:00:00 NR -14.8054 71.3927 main 1567 1533 __________P___ -1 -14.8054 71.3927 7 6 260
1895001S15072 1895 2 SI MM NOT_NAMED 1895-01-01 15:00:00 NR -14.8546 71.0936 main 1533 1503 __________P___ -1 -14.8546 71.0936 7 6 261
1895001S15072 1895 2 SI MM NOT_NAMED 1895-01-01 18:00:00 NR -14.9000 70.8000 main 1503 1474 __________O___ -1 -14.9000 70.8000 7 6 261
1895001S15072 1895 2 SI MM NOT_NAMED 1895-01-01 21:00:00 NR -14.9416 70.5120 main 1474 1440 __________P___ -1 -14.9416 70.5120 7 6 261
1895001S15072 1895 2 SI MM NOT_NAMED 1895-01-02 00:00:00 NR -14.9847 70.2223 main 1440 1412 __________P___ -1 -14.9847 70.2223 7 6 261
1895001S15072 1895 2 SI MM NOT_NAMED 1895-01-02 03:00:00 NR -15.0354 69.9214 main 1412 1378 __________P___ -1 -15.0354 69.9214 7 6 259
1895001S15072 1895 2 SI MM NOT_NAMED 1895-01-02 06:00:00 NR -15.1000 69.6000 main 1378 1344 __________O___ -1 -15.1000 69.6000 7 7 257
1895001S15072 1895 2 SI MM NOT_NAMED 1895-01-02 09:00:00 NR -15.1856 69.2466 main 1334 1301 __________P___ -1 -15.1856 69.2466 7 7 255
1895001S15072 1895 2 SI MM NOT_NAMED 1895-01-02 12:00:00 NR -15.2850 68.8725 main 1301 1257 __________P___ -1 -15.2850 68.8725 7 8 254
1895001S15072 1895 2 SI MM NOT_NAMED 1895-01-02 15:00:00 NR -15.3918 68.4872 main 1257 1214 __________P___ -1 -15.3918 68.4872 7 8 254
1895001S15072 1895 2 SI MM NOT_NAMED 1895-01-02 18:00:00 NR -15.5000 68.1000 main 1214 1181 __________O___ -1 -15.5000 68.1000 7 7 254
1895001S15072 1895 2 SI MM NOT_NAMED 1895-01-02 21:00:00 NR -15.5695 67.8291 main 1181 1162 __________P___ -1 -15.5695 67.8291 7 6 255
1895001S15072 1895 2 SI MM NOT_NAMED 1895-01-03 00:00:00 NR -15.6441 67.5425 main 1152 1119 __________P___ -1 -15.6441 67.5425 7 7 255
1895001S15072 1895 2 SI MM NOT_NAMED 1895-01-03 03:00:00 NR -15.7467 67.1597 main 1119 1051 __________P___ -1 -15.7467 67.1597 7 9 254
1895001S15072 1895 2 SI MM NOT_NAMED 1895-01-03 06:00:00 NR -15.9000 66.6000 main 1051 965 __________O___ -1 -15.9000 66.6000 7 14 254
1895001S15072 1895 2 SI MM NOT_NAMED 1895-01-03 09:00:00 NR -16.1402 65.7150 main 956 847 __________P___ -1 -16.1402 65.7150 7 19 254
1895001S15072 1895 2 SI MM NOT_NAMED 1895-01-03 12:00:00 NR -16.4249 64.6574 main 847 729 __________P___ -1 -16.4249 64.6574 7 22 254
1895001S15072 1895 2 SI MM NOT_NAMED 1895-01-03 15:00:00 NR -16.7215 63.5459 main 720 622 __________P___ -1 -16.7215 63.5459 7 21 254
1895001S15072 1895 2 SI MM NOT_NAMED 1895-01-03 18:00:00 NR -17.0000 62.5000 main 613 531 __________O___ -1 -17.0000 62.5000 7 19 254
1895001S15072 1895 2 SI MM NOT_NAMED 1895-01-03 21:00:00 NR -17.2361 61.6478 main 523 452 __________P___ -1 -17.2361 61.6478 7 16 254
1895001S15072 1895 2 SI MM NOT_NAMED 1895-01-04 00:00:00 NR -17.4506 60.8847 main 445 383 __________P___ -1 -17.4506 60.8847 7 14 254
1895001S15072 1895 2 SI MM NOT_NAMED 1895-01-04 03:00:00 NR -17.6398 60.2043 main 383 325 __________P___ -1 -17.6398 60.2043 7 13 254
1895001S15072 1895 2 SI MM NOT_NAMED 1895-01-04 06:00:00 NR -17.8000 59.6000 main 325 286 __________O___ -1 -17.8000 59.6000 7 11 256
1895001S15072 1895 2 SI MM NOT_NAMED 1895-01-04 09:00:00 NR -17.9233 59.0523 main 286 253 __________P___ -1 -17.9233 59.0523 7 10 257
1895001S15072 1895 2 SI MM NOT_NAMED 1895-01-04 12:00:00 NR -18.0207 58.5739 main 253 229 __________P___ -1 -18.0207 58.5739 7 9 258
1895001S15072 1895 2 SI MM NOT_NAMED 1895-01-04 15:00:00 NR -18.1079 58.1337 main 227 212 __________P___ -1 -18.1079 58.1337 7 9 258
1895001S15072 1895 2 SI MM NOT_NAMED 1895-01-04 18:00:00 NR -18.2000 57.7000 main 212 201 __________O___ -1 -18.2000 57.7000 7 9 257
1895001S15072 1895 2 SI MM NOT_NAMED 1895-01-04 21:00:00 NR -18.3086 57.2476 main 203 194 __________P___ -1 -18.3086 57.2476 7 9 255
1895001S15072 1895 2 SI MM NOT_NAMED 1895-01-05 00:00:00 NR -18.4316 56.7760 main 203 197 __________P___ -1 -18.4316 56.7760 7 9 254
1895001S15072 1895 2 SI MM NOT_NAMED 1895-01-05 03:00:00 NR -18.5639 56.2915 main 209 209 __________P___ -1 -18.5639 56.2915 7 10 254
1895001S15072 1895 2 SI MM NOT_NAMED 1895-01-05 06:00:00 NR -18.7000 55.8000 main 237 __________O___ -1 -18.7000 55.8000 7 10 254

About IBTrACS Database

This database is a web-friendly format of International Best Track Archive for Climate Stewardship (IBTrACS), a global best track data archive curated by NOAA dating back to 1842.

Updated: 2021-12-06